Time;durP1;ratioP1;P1;durP2;ratioP2;P2;SDS_P1;SDS_P2;PMS_P1;PMS_P2;Temp;Humidity;BMP_temperature;BMP_pressure;BME280_temperature;BME280_humidity;BME280_pressure;Samples;Min_cycle;Max_cycle;Signal;HPM_P1;HPM_P2
2023/06/05 00:02:12;;;;;;;5.35;2.28;;;;;;;;;;5114160;28;20043;-70
2023/06/05 00:04:39;;;;;;;3.50;1.83;;;;;;;;;;5114901;28;20075;-70
2023/06/05 00:07:04;;;;;;;5.05;2.17;;;;;;;;;;5114672;28;20020;-69
2023/06/05 00:09:29;;;;;;;7.40;2.72;;;;;;;;;;5114484;28;20023;-71
2023/06/05 00:11:55;;;;;;;5.70;2.00;;;;;;;;;;5114159;28;20463;-70
2023/06/05 00:14:20;;;;;;;4.90;2.40;;;;;;;;;;5114530;28;20273;-70
2023/06/05 00:16:46;;;;;;;6.35;2.17;;;;;;;;;;5114370;28;20048;-70
2023/06/05 00:19:12;;;;;;;4.65;2.05;;;;;;;;;;5114015;28;20030;-70
2023/06/05 00:21:37;;;;;;;5.57;2.22;;;;;;;;;;5095826;28;20096;-71
2023/06/05 00:24:02;;;;;;;4.80;1.67;;;;;;;;;;5114349;28;20095;-70
2023/06/05 00:26:28;;;;;;;5.05;2.60;;;;;;;;;;5114046;28;20028;-72
2023/06/05 00:28:53;;;;;;;5.47;2.42;;;;;;;;;;5114010;28;20024;-70
2023/06/05 00:31:18;;;;;;;5.55;2.38;;;;;;;;;;5114176;28;20015;-70
2023/06/05 00:33:44;;;;;;;5.80;2.30;;;;;;;;;;5113931;28;20012;-70
2023/06/05 00:36:09;;;;;;;5.35;3.08;;;;;;;;;;5113959;28;20026;-70
2023/06/05 00:38:35;;;;;;;3.70;2.05;;;;;;;;;;5113907;28;20054;-71
2023/06/05 00:41:01;;;;;;;3.40;2.25;;;;;;;;;;5095518;28;20030;-70
2023/06/05 00:43:26;;;;;;;4.53;2.70;;;;;;;;;;5113850;28;20440;-70
2023/06/05 00:45:55;;;;;;;6.90;2.50;;;;;;;;;;5113974;28;20291;-70
2023/06/05 00:48:20;;;;;;;3.88;2.60;;;;;;;;;;5114154;28;20181;-70
2023/06/05 00:50:45;;;;;;;4.43;2.78;;;;;;;;;;5114021;28;20452;-71
2023/06/05 00:53:11;;;;;;;5.20;2.78;;;;;;;;;;5113779;28;20031;-70
2023/06/05 00:55:37;;;;;;;6.38;2.53;;;;;;;;;;5113924;28;20027;-71
2023/06/05 00:58:03;;;;;;;3.88;2.47;;;;;;;;;;5113694;28;20034;-70
2023/06/05 01:00:28;;;;;;;3.95;2.80;;;;;;;;;;5113854;28;20096;-70
2023/06/05 01:02:56;;;;;;;7.63;3.30;;;;;;;;;;5113380;28;20131;-70
2023/06/05 01:05:22;;;;;;;4.70;2.28;;;;;;;;;;5113604;28;20425;-71
2023/06/05 01:07:48;;;;;;;3.95;2.60;;;;;;;;;;5113481;28;20020;-70
2023/06/05 01:10:13;;;;;;;4.88;2.72;;;;;;;;;;5113353;28;20119;-70
2023/06/05 01:12:46;;;;;;;5.07;2.90;;;;;;;;;;5095195;28;20459;-71
2023/06/05 01:15:11;;;;;;;7.85;2.97;;;;;;;;;;5113420;28;20031;-72
2023/06/05 01:17:37;;;;;;;5.32;2.72;;;;;;;;;;5113644;28;20080;-70
2023/06/05 01:20:03;;;;;;;7.68;2.65;;;;;;;;;;5113585;28;20028;-68
2023/06/05 01:22:28;;;;;;;4.80;2.63;;;;;;;;;;5113543;28;20528;-71
2023/06/05 01:24:53;;;;;;;7.18;2.83;;;;;;;;;;5113282;28;20016;-69
2023/06/05 01:27:25;;;;;;;4.28;2.55;;;;;;;;;;5113674;28;20360;-71
2023/06/05 01:29:52;;;;;;;2.95;2.08;;;;;;;;;;5117385;28;20024;-71
2023/06/05 01:32:36;;;;;;;3.50;2.22;;;;;;;;;;5117516;28;20023;-70
2023/06/05 01:35:04;;;;;;;4.82;2.10;;;;;;;;;;5117340;28;20016;-69
2023/06/05 01:37:40;;;;;;;4.88;2.38;;;;;;;;;;5117193;28;20027;-70
2023/06/05 01:40:06;;;;;;;3.40;2.50;;;;;;;;;;5117430;28;20031;-71
2023/06/05 01:42:32;;;;;;;4.25;2.50;;;;;;;;;;5117731;28;20117;-71
2023/06/05 01:44:58;;;;;;;6.13;2.53;;;;;;;;;;5117095;28;20028;-73
2023/06/05 01:47:24;;;;;;;4.70;2.45;;;;;;;;;;5117124;28;20089;-70
2023/06/05 01:49:49;;;;;;;4.25;2.17;;;;;;;;;;5098639;28;20437;-71
2023/06/05 01:52:15;;;;;;;7.00;2.72;;;;;;;;;;5117261;28;20099;-71
2023/06/05 01:54:42;;;;;;;5.43;2.80;;;;;;;;;;5116869;28;20032;-71
2023/06/05 01:57:09;;;;;;;4.28;2.05;;;;;;;;;;5117061;28;20022;-71
2023/06/05 01:59:35;;;;;;;3.80;2.17;;;;;;;;;;5116804;28;20023;-72
2023/06/05 02:02:00;;;;;;;6.00;2.75;;;;;;;;;;5116616;28;20036;-70
2023/06/05 02:04:27;;;;;;;3.72;2.20;;;;;;;;;;5116692;28;20116;-70
2023/06/05 02:06:52;;;;;;;3.70;2.50;;;;;;;;;;5117045;28;20423;-69
2023/06/05 02:09:18;;;;;;;3.65;2.28;;;;;;;;;;5116576;28;20507;-70
2023/06/05 02:11:45;;;;;;;5.00;2.53;;;;;;;;;;5116729;28;20073;-70
2023/06/05 02:14:12;;;;;;;3.67;2.67;;;;;;;;;;5116962;28;20016;-70
2023/06/05 02:16:38;;;;;;;5.25;2.47;;;;;;;;;;5116503;28;20027;-71
2023/06/05 02:19:03;;;;;;;5.03;2.85;;;;;;;;;;5098174;28;20019;-69
2023/06/05 02:21:30;;;;;;;2.47;2.10;;;;;;;;;;5116724;28;20047;-70
2023/06/05 02:23:57;;;;;;;3.47;2.70;;;;;;;;;;5098146;28;20034;-70
2023/06/05 02:26:22;;;;;;;4.43;2.50;;;;;;;;;;5116369;28;20101;-70
2023/06/05 02:28:48;;;;;;;6.25;3.03;;;;;;;;;;5097938;28;20020;-71
2023/06/05 02:31:16;;;;;;;4.22;2.50;;;;;;;;;;5098232;28;20061;-70
2023/06/05 02:33:41;;;;;;;4.57;2.70;;;;;;;;;;5116120;28;20463;-69
2023/06/05 02:36:06;;;;;;;6.05;2.67;;;;;;;;;;5116390;28;20108;-70
2023/06/05 02:38:32;;;;;;;7.03;3.15;;;;;;;;;;5116280;28;20016;-69
2023/06/05 02:40:57;;;;;;;7.75;2.58;;;;;;;;;;5116209;28;20107;-71
2023/06/05 02:43:23;;;;;;;4.63;3.30;;;;;;;;;;5116283;28;20401;-70
2023/06/05 02:45:48;;;;;;;4.47;2.85;;;;;;;;;;5116037;28;20016;-71
2023/06/05 02:48:14;;;;;;;5.65;3.63;;;;;;;;;;5115812;28;20093;-71
2023/06/05 02:50:39;;;;;;;4.93;2.83;;;;;;;;;;5116096;28;20035;-71
2023/06/05 02:53:04;;;;;;;5.03;2.80;;;;;;;;;;5116229;28;20039;-70
2023/06/05 02:55:32;;;;;;;6.95;2.80;;;;;;;;;;5116170;28;20080;-72
2023/06/05 02:57:57;;;;;;;4.55;2.75;;;;;;;;;;5115787;28;20022;-71
2023/06/05 03:00:23;;;;;;;9.45;3.92;;;;;;;;;;5115807;28;20027;-71
2023/06/05 03:02:48;;;;;;;7.05;3.05;;;;;;;;;;5115431;28;20044;-71
2023/06/05 03:05:26;;;;;;;6.85;2.88;;;;;;;;;;5115939;28;20023;-72
2023/06/05 03:07:55;;;;;;;6.45;2.75;;;;;;;;;;5115755;28;20027;-71
2023/06/05 03:10:21;;;;;;;8.15;2.80;;;;;;;;;;5115392;28;20497;-71
2023/06/05 03:12:46;;;;;;;5.55;2.35;;;;;;;;;;5115642;28;20094;-72
2023/06/05 03:15:12;;;;;;;5.57;3.28;;;;;;;;;;5115397;28;20076;-72
2023/06/05 03:17:37;;;;;;;4.10;2.55;;;;;;;;;;5115689;28;20149;-71
2023/06/05 03:20:02;;;;;;;5.43;2.80;;;;;;;;;;5115682;28;20057;-71
2023/06/05 03:22:27;;;;;;;6.93;2.80;;;;;;;;;;5115403;28;20281;-70
2023/06/05 03:24:53;;;;;;;4.87;2.53;;;;;;;;;;5115164;28;20023;-70
2023/06/05 03:27:19;;;;;;;5.97;2.78;;;;;;;;;;5115175;28;20743;-71
2023/06/05 03:29:44;;;;;;;7.75;2.95;;;;;;;;;;5115032;28;20033;-72
2023/06/05 03:32:10;;;;;;;4.10;2.90;;;;;;;;;;5115358;28;20061;-72
2023/06/05 03:34:36;;;;;;;9.73;2.90;;;;;;;;;;5115227;28;20030;-71
2023/06/05 03:37:02;;;;;;;3.33;2.70;;;;;;;;;;5115103;28;20045;-70
2023/06/05 03:39:27;;;;;;;4.40;2.85;;;;;;;;;;5115101;28;20028;-70
2023/06/05 03:41:52;;;;;;;4.22;2.80;;;;;;;;;;5115086;28;20015;-71
2023/06/05 03:44:18;;;;;;;6.85;2.63;;;;;;;;;;5114743;28;20061;-71
2023/06/05 03:46:44;;;;;;;4.88;2.47;;;;;;;;;;5115024;28;20027;-73
2023/06/05 03:49:09;;;;;;;7.13;3.78;;;;;;;;;;5114727;28;20066;-71
2023/06/05 03:51:35;;;;;;;5.05;3.15;;;;;;;;;;5114152;28;20055;-70
2023/06/05 03:54:01;;;;;;;9.02;3.60;;;;;;;;;;5114568;28;20486;-70
2023/06/05 03:56:42;;;;;;;11.50;3.75;;;;;;;;;;5114614;28;20027;-70
2023/06/05 03:59:18;;;;;;;7.47;3.03;;;;;;;;;;5114447;28;20108;-70
2023/06/05 04:01:43;;;;;;;6.53;3.22;;;;;;;;;;5114258;28;20048;-71
2023/06/05 04:04:08;;;;;;;4.55;3.38;;;;;;;;;;5114499;28;20116;-71
2023/06/05 04:06:34;;;;;;;9.35;3.25;;;;;;;;;;5096365;28;20064;-70
2023/06/05 04:08:59;;;;;;;9.77;3.10;;;;;;;;;;5096445;28;20458;-71
2023/06/05 04:11:28;;;;;;;4.53;3.13;;;;;;;;;;5114283;28;20379;-70
2023/06/05 04:13:54;;;;;;;4.68;2.83;;;;;;;;;;5114492;28;20098;-72
2023/06/05 04:16:22;;;;;;;7.63;5.00;;;;;;;;;;5114609;28;20068;-71
2023/06/05 04:18:48;;;;;;;5.97;3.03;;;;;;;;;;5096169;28;20028;-70
2023/06/05 04:21:13;;;;;;;8.65;3.25;;;;;;;;;;5114481;28;20099;-70
2023/06/05 04:23:40;;;;;;;6.05;2.80;;;;;;;;;;5114165;28;20051;-71
2023/06/05 04:26:07;;;;;;;7.88;3.17;;;;;;;;;;5096079;28;20458;-72
2023/06/05 04:28:34;;;;;;;7.35;3.30;;;;;;;;;;5113972;28;20037;-72
2023/06/05 04:31:01;;;;;;;6.22;3.30;;;;;;;;;;5096065;28;20479;-71
2023/06/05 04:33:28;;;;;;;7.40;2.95;;;;;;;;;;5114023;28;20488;-71
2023/06/05 04:35:55;;;;;;;4.03;2.90;;;;;;;;;;5114002;28;20076;-73
2023/06/05 04:38:22;;;;;;;6.32;2.85;;;;;;;;;;5083822;28;20024;-72
2023/06/05 04:40:57;;;;;;;5.10;2.67;;;;;;;;;;5093601;28;20030;-71
2023/06/05 04:43:23;;;;;;;4.40;2.60;;;;;;;;;;5109719;28;20023;-73
2023/06/05 04:45:50;;;;;;;6.60;3.53;;;;;;;;;;5114290;28;20092;-72
2023/06/05 04:48:16;;;;;;;4.45;3.38;;;;;;;;;;5113196;28;20027;-72
2023/06/05 04:50:42;;;;;;;4.70;2.47;;;;;;;;;;5113058;28;20040;-72
2023/06/05 04:53:08;;;;;;;4.82;2.13;;;;;;;;;;5114127;28;20040;-74
2023/06/05 04:55:36;;;;;;;6.68;2.40;;;;;;;;;;5113864;28;20095;-74
2023/06/05 04:58:02;;;;;;;4.80;3.30;;;;;;;;;;5095844;28;20027;-78
2023/06/05 05:00:29;;;;;;;8.23;3.60;;;;;;;;;;5112962;28;20035;-76
2023/06/05 05:02:55;;;;;;;9.20;3.38;;;;;;;;;;5116701;28;20079;-75
2023/06/05 05:05:22;;;;;;;6.50;3.33;;;;;;;;;;5118781;28;20024;-73
2023/06/05 05:07:47;;;;;;;9.75;3.60;;;;;;;;;;5118215;28;20048;-76
2023/06/05 05:10:14;;;;;;;7.53;3.00;;;;;;;;;;5111092;28;20452;-72
2023/06/05 05:12:41;;;;;;;7.13;3.00;;;;;;;;;;5097139;28;20059;-72
2023/06/05 05:15:07;;;;;;;9.90;2.90;;;;;;;;;;5097383;28;20081;-73
2023/06/05 05:17:34;;;;;;;10.40;3.75;;;;;;;;;;5096856;28;20074;-73
2023/06/05 05:20:07;;;;;;;7.65;3.22;;;;;;;;;;5105968;28;20440;-74
2023/06/05 05:22:33;;;;;;;9.50;3.30;;;;;;;;;;5111626;28;20028;-73
2023/06/05 05:25:01;;;;;;;8.27;2.90;;;;;;;;;;5117797;28;20062;-73
2023/06/05 05:27:32;;;;;;;6.75;3.35;;;;;;;;;;5116486;28;20028;-72
2023/06/05 05:29:58;;;;;;;8.18;2.90;;;;;;;;;;5115769;28;20031;-73
2023/06/05 05:32:24;;;;;;;7.25;2.88;;;;;;;;;;5116214;28;20106;-72
2023/06/05 05:34:51;;;;;;;6.15;2.85;;;;;;;;;;5116106;28;20027;-72
2023/06/05 05:37:16;;;;;;;8.15;2.97;;;;;;;;;;5117208;28;20019;-71
2023/06/05 05:39:42;;;;;;;4.80;2.67;;;;;;;;;;5117502;28;20026;-74
2023/06/05 05:42:08;;;;;;;6.53;2.97;;;;;;;;;;5116345;28;20039;-73
2023/06/05 05:44:34;;;;;;;5.68;3.38;;;;;;;;;;5116874;28;20601;-73
2023/06/05 05:46:59;;;;;;;6.85;3.10;;;;;;;;;;5117174;28;20020;-72
2023/06/05 05:49:24;;;;;;;5.57;2.70;;;;;;;;;;5098028;28;20031;-72
2023/06/05 05:51:50;;;;;;;7.47;2.72;;;;;;;;;;5114773;28;20380;-73
2023/06/05 05:54:15;;;;;;;8.27;2.35;;;;;;;;;;5114699;28;20024;-73
2023/06/05 05:56:42;;;;;;;8.80;2.80;;;;;;;;;;5114790;28;20016;-73
2023/06/05 05:59:07;;;;;;;6.45;2.85;;;;;;;;;;5114363;28;20376;-71
2023/06/05 06:01:32;;;;;;;9.97;3.10;;;;;;;;;;5114373;28;20050;-73
2023/06/05 06:03:57;;;;;;;7.23;2.70;;;;;;;;;;5114623;28;20611;-72
2023/06/05 06:06:23;;;;;;;9.10;2.80;;;;;;;;;;5115234;28;20265;-72
2023/06/05 06:08:48;;;;;;;8.83;3.07;;;;;;;;;;5114413;28;20361;-74
2023/06/05 06:11:13;;;;;;;5.20;2.42;;;;;;;;;;5114115;28;20384;-72
2023/06/05 06:13:39;;;;;;;6.20;2.73;;;;;;;;;;5113548;28;20043;-72
2023/06/05 06:16:04;;;;;;;11.95;2.80;;;;;;;;;;5114199;28;20266;-73
2023/06/05 06:18:29;;;;;;;6.03;2.60;;;;;;;;;;5114142;28;20121;-74
2023/06/05 06:20:55;;;;;;;5.60;2.53;;;;;;;;;;5114126;28;20750;-73
2023/06/05 06:23:20;;;;;;;6.55;2.80;;;;;;;;;;5115944;28;20307;-72
2023/06/05 06:25:46;;;;;;;4.05;2.28;;;;;;;;;;5116155;28;20028;-72
2023/06/05 06:28:11;;;;;;;6.50;2.30;;;;;;;;;;5116489;28;20034;-73
2023/06/05 06:30:37;;;;;;;8.93;2.97;;;;;;;;;;5097828;28;20542;-73
2023/06/05 06:33:04;;;;;;;3.57;2.20;;;;;;;;;;5115919;28;20376;-73
2023/06/05 06:35:29;;;;;;;8.98;2.42;;;;;;;;;;5116286;28;20340;-73
2023/06/05 06:37:56;;;;;;;11.45;2.70;;;;;;;;;;5116352;28;20035;-73
2023/06/05 06:40:21;;;;;;;4.95;2.17;;;;;;;;;;5116186;28;20030;-72
2023/06/05 06:42:47;;;;;;;9.75;2.40;;;;;;;;;;5115826;28;20031;-73
2023/06/05 06:45:12;;;;;;;4.90;3.20;;;;;;;;;;5115768;28;20019;-73
2023/06/05 06:47:38;;;;;;;8.70;2.93;;;;;;;;;;5116052;28;20020;-73
2023/06/05 06:50:03;;;;;;;6.07;1.92;;;;;;;;;;5115716;28;20350;-72
2023/06/05 06:52:28;;;;;;;7.22;2.47;;;;;;;;;;5116030;28;20379;-72
2023/06/05 06:54:54;;;;;;;6.43;2.17;;;;;;;;;;5115824;28;20028;-72
2023/06/05 06:57:19;;;;;;;8.95;2.50;;;;;;;;;;5115815;28;20050;-72
2023/06/05 06:59:45;;;;;;;6.00;2.83;;;;;;;;;;5115675;28;20016;-72
2023/06/05 07:02:13;;;;;;;8.40;2.95;;;;;;;;;;5115512;28;20539;-74
2023/06/05 07:04:38;;;;;;;6.03;2.30;;;;;;;;;;5115437;28;20024;-73
2023/06/05 07:07:04;;;;;;;5.65;2.63;;;;;;;;;;5115775;28;20030;-72
2023/06/05 07:09:29;;;;;;;7.55;3.00;;;;;;;;;;5115519;28;20024;-72
2023/06/05 07:11:55;;;;;;;4.87;2.50;;;;;;;;;;5115524;28;20019;-72
2023/06/05 07:14:20;;;;;;;4.80;2.20;;;;;;;;;;5115629;28;20258;-72
2023/06/05 07:16:46;;;;;;;8.98;2.38;;;;;;;;;;5114896;28;20269;-72
2023/06/05 07:19:13;;;;;;;14.13;2.67;;;;;;;;;;5097332;28;20042;-74
2023/06/05 07:21:39;;;;;;;6.13;2.30;;;;;;;;;;5097376;28;20019;-71
2023/06/05 07:24:05;;;;;;;6.85;2.15;;;;;;;;;;5115745;28;20046;-73
2023/06/05 07:26:32;;;;;;;5.82;2.40;;;;;;;;;;5114755;28;20051;-71
2023/06/05 07:28:58;;;;;;;5.80;2.10;;;;;;;;;;5115264;28;20065;-72
2023/06/05 07:31:23;;;;;;;6.53;2.25;;;;;;;;;;5114986;28;20031;-70
2023/06/05 07:33:49;;;;;;;6.47;2.30;;;;;;;;;;5114937;28;20024;-69
2023/06/05 07:36:16;;;;;;;5.28;2.40;;;;;;;;;;5114078;28;20027;-71
2023/06/05 07:38:42;;;;;;;4.30;2.22;;;;;;;;;;5114704;28;20088;-69
2023/06/05 07:41:10;;;;;;;4.13;2.15;;;;;;;;;;5114917;28;20076;-71
2023/06/05 07:43:40;;;;;;;4.38;2.22;;;;;;;;;;5111091;28;20472;-71
2023/06/05 07:46:28;;;;;;;6.40;2.17;;;;;;;;;;5113965;28;20503;-70
2023/06/05 07:48:55;;;;;;;3.92;2.13;;;;;;;;;;5114528;28;20042;-68
2023/06/05 07:51:20;;;;;;;5.85;2.22;;;;;;;;;;5114481;28;20046;-69
2023/06/05 07:53:47;;;;;;;6.10;2.73;;;;;;;;;;5113620;28;20020;-69
2023/06/05 07:56:13;;;;;;;5.88;2.38;;;;;;;;;;5114457;28;20531;-68
2023/06/05 07:58:41;;;;;;;4.10;2.30;;;;;;;;;;5114442;28;20376;-69
2023/06/05 08:01:07;;;;;;;7.93;2.00;;;;;;;;;;5114040;28;20586;-69
2023/06/05 08:03:34;;;;;;;6.28;2.33;;;;;;;;;;5113931;28;20123;-68
2023/06/05 08:06:02;;;;;;;7.22;1.88;;;;;;;;;;5114616;28;20015;-69
2023/06/05 08:08:28;;;;;;;4.88;2.10;;;;;;;;;;5113541;28;20024;-68
2023/06/05 08:10:54;;;;;;;2.17;1.70;;;;;;;;;;5113749;28;20226;-70
2023/06/05 08:13:19;;;;;;;3.63;1.63;;;;;;;;;;5114361;28;20047;-72
2023/06/05 08:15:45;;;;;;;4.57;2.00;;;;;;;;;;5114412;28;20015;-72
2023/06/05 08:18:11;;;;;;;4.17;1.60;;;;;;;;;;5114197;28;20022;-72
2023/06/05 08:20:38;;;;;;;4.35;2.03;;;;;;;;;;5114006;28;20015;-76
2023/06/05 08:23:05;;;;;;;5.45;1.85;;;;;;;;;;5113920;28;20012;-74
2023/06/05 08:25:31;;;;;;;3.38;1.70;;;;;;;;;;5114173;28;20007;-75
2023/06/05 08:27:56;;;;;;;6.83;1.80;;;;;;;;;;5113347;28;20457;-74
2023/06/05 08:30:23;;;;;;;4.57;1.80;;;;;;;;;;5111722;28;20038;-75
2023/06/05 08:32:48;;;;;;;7.15;2.42;;;;;;;;;;5113869;28;20023;-74
2023/06/05 08:35:15;;;;;;;3.37;2.00;;;;;;;;;;5113685;28;20022;-74
2023/06/05 08:37:41;;;;;;;3.50;1.88;;;;;;;;;;5113796;28;20067;-75
2023/06/05 08:40:11;;;;;;;5.57;2.72;;;;;;;;;;5113573;28;20403;-75
2023/06/05 08:42:38;;;;;;;3.17;1.65;;;;;;;;;;5096246;28;20095;-74
2023/06/05 08:45:10;;;;;;;2.83;1.50;;;;;;;;;;5110323;28;20016;-77
2023/06/05 08:47:37;;;;;;;4.90;1.98;;;;;;;;;;5113825;28;20039;-73
2023/06/05 08:50:04;;;;;;;3.35;1.48;;;;;;;;;;5095789;28;20111;-74
2023/06/05 08:52:50;;;;;;;4.82;1.50;;;;;;;;;;5113755;28;20022;-76
2023/06/05 08:55:18;;;;;;;3.53;1.65;;;;;;;;;;5113475;28;20028;-73
2023/06/05 08:57:45;;;;;;;5.40;1.80;;;;;;;;;;5113555;28;20110;-74
2023/06/05 09:00:12;;;;;;;4.40;1.67;;;;;;;;;;5092672;28;20024;-75
2023/06/05 09:02:38;;;;;;;3.75;1.17;;;;;;;;;;5089787;28;20573;-75
2023/06/05 09:05:05;;;;;;;3.80;1.45;;;;;;;;;;5074122;28;20065;-74
2023/06/05 09:07:33;;;;;;;8.10;1.60;;;;;;;;;;5092447;28;20031;-74
2023/06/05 09:09:58;;;;;;;2.25;1.80;;;;;;;;;;5071919;28;20067;-73
2023/06/05 09:12:25;;;;;;;5.43;1.65;;;;;;;;;;5093125;28;20024;-75
2023/06/05 09:14:52;;;;;;;2.20;1.30;;;;;;;;;;5093246;28;20032;-76
2023/06/05 09:17:21;;;;;;;3.67;1.63;;;;;;;;;;5092660;28;20107;-73
2023/06/05 09:19:47;;;;;;;5.13;1.33;;;;;;;;;;5097253;28;20023;-76
2023/06/05 09:22:16;;;;;;;4.20;1.40;;;;;;;;;;5113505;28;20012;-75
2023/06/05 09:24:42;;;;;;;4.72;1.73;;;;;;;;;;5095106;28;20031;-77
2023/06/05 09:27:11;;;;;;;2.95;1.40;;;;;;;;;;5112997;28;20171;-76
2023/06/05 09:29:39;;;;;;;4.28;1.50;;;;;;;;;;5112732;28;20054;-77
2023/06/05 09:32:10;;;;;;;5.05;1.52;;;;;;;;;;5094872;28;20426;-76
2023/06/05 09:34:36;;;;;;;2.45;1.25;;;;;;;;;;5077288;28;20055;-75
2023/06/05 09:37:11;;;;;;;2.40;1.60;;;;;;;;;;5112648;28;20361;-74
2023/06/05 09:39:48;;;;;;;2.78;0.98;;;;;;;;;;5112732;28;20497;-73
2023/06/05 09:42:14;;;;;;;5.35;1.38;;;;;;;;;;5112979;28;20064;-76
2023/06/05 09:44:40;;;;;;;3.72;1.90;;;;;;;;;;5112638;28;20026;-75
2023/06/05 09:47:08;;;;;;;8.73;2.10;;;;;;;;;;5112787;28;20078;-73
2023/06/05 09:49:41;;;;;;;3.33;1.60;;;;;;;;;;5113778;28;20473;-73
2023/06/05 09:52:09;;;;;;;4.00;1.45;;;;;;;;;;5116530;28;20026;-74
2023/06/05 09:54:38;;;;;;;5.32;1.50;;;;;;;;;;5098193;28;20024;-76
2023/06/05 09:57:05;;;;;;;2.85;1.25;;;;;;;;;;5098393;28;20024;-75
2023/06/05 09:59:46;;;;;;;3.05;1.40;;;;;;;;;;5097982;28;20032;-75
2023/06/05 10:02:15;;;;;;;6.13;2.08;;;;;;;;;;5113130;28;20035;-74
2023/06/05 10:04:46;;;;;;;4.78;1.42;;;;;;;;;;5115555;28;20023;-74
2023/06/05 10:07:12;;;;;;;2.50;1.60;;;;;;;;;;5098235;28;20028;-75
2023/06/05 10:09:39;;;;;;;4.00;1.70;;;;;;;;;;5097922;28;20081;-74
2023/06/05 10:12:07;;;;;;;2.10;1.27;;;;;;;;;;5116583;28;20043;-75
2023/06/05 10:14:34;;;;;;;2.38;1.30;;;;;;;;;;5115869;28;20499;-74
2023/06/05 10:17:01;;;;;;;2.05;1.15;;;;;;;;;;5116342;28;20031;-75
2023/06/05 10:19:27;;;;;;;4.18;1.80;;;;;;;;;;5097233;28;20032;-74
2023/06/05 10:21:55;;;;;;;2.83;1.55;;;;;;;;;;5097971;28;20386;-75
2023/06/05 10:24:27;;;;;;;4.15;1.80;;;;;;;;;;5115984;28;20031;-74
2023/06/05 10:27:11;;;;;;;3.97;1.95;;;;;;;;;;5116068;28;20495;-75
2023/06/05 10:29:51;;;;;;;7.60;1.80;;;;;;;;;;5115741;28;20028;-74
2023/06/05 10:32:29;;;;;;;2.08;1.48;;;;;;;;;;5115901;28;20015;-71
2023/06/05 10:35:15;;;;;;;5.50;1.60;;;;;;;;;;5115520;28;20031;-73
2023/06/05 10:38:17;;;;;;;3.85;1.40;;;;;;;;;;5115773;28;20062;-74
2023/06/05 10:40:55;;;;;;;2.43;1.47;;;;;;;;;;5116472;28;20020;-74
2023/06/05 10:43:26;;;;;;;2.63;1.08;;;;;;;;;;5115217;28;20011;-74
2023/06/05 10:46:07;;;;;;;3.45;1.60;;;;;;;;;;5115316;28;20122;-72
2023/06/05 10:48:52;;;;;;;5.10;1.48;;;;;;;;;;5096506;28;20074;-74
2023/06/05 10:51:32;;;;;;;3.20;1.85;;;;;;;;;;5115599;28;20372;-74
2023/06/05 10:54:00;;;;;;;4.47;1.48;;;;;;;;;;5115572;28;20039;-74
2023/06/05 10:56:45;;;;;;;1.60;1.30;;;;;;;;;;5115886;28;20020;-74
2023/06/05 10:59:20;;;;;;;2.92;1.92;;;;;;;;;;5114990;28;20035;-74
2023/06/05 11:02:14;;;;;;;4.95;1.65;;;;;;;;;;5093214;28;20048;-75
2023/06/05 11:04:46;;;;;;;3.55;1.67;;;;;;;;;;5088670;28;20031;-74
2023/06/05 11:07:11;;;;;;;;;;;;;;;;;;5074843;28;20063;-74
2023/06/05 11:09:36;;;;;;;3.60;2.10;;;;;;;;;;5090204;28;19912;-73
2023/06/05 11:12:01;;;;;;;2.93;1.60;;;;;;;;;;5094639;28;20112;-75
2023/06/05 11:14:42;;;;;;;3.28;1.40;;;;;;;;;;5092939;28;20327;-76
2023/06/05 11:17:29;;;;;;;4.72;2.00;;;;;;;;;;5094643;28;20094;-74
2023/06/05 11:19:54;;;;;;;6.97;2.22;;;;;;;;;;5094982;28;20028;-76
2023/06/05 11:22:20;;;;;;;3.80;1.65;;;;;;;;;;5095220;28;20103;-76
2023/06/05 11:24:45;;;;;;;4.95;2.33;;;;;;;;;;5094502;28;20013;-75
2023/06/05 11:27:31;;;;;;;5.90;1.70;;;;;;;;;;5095356;28;20013;-78
2023/06/05 11:29:56;;;;;;;4.55;1.88;;;;;;;;;;5052786;28;20404;-78
2023/06/05 11:32:25;;;;;;;2.97;1.98;;;;;;;;;;5095160;28;20031;-76
2023/06/05 11:34:56;;;;;;;3.92;1.80;;;;;;;;;;5095210;28;20024;-79
2023/06/05 11:37:21;;;;;;;3.05;1.48;;;;;;;;;;5093583;28;20027;-75
2023/06/05 11:39:47;;;;;;;2.00;1.37;;;;;;;;;;5094480;28;20016;-76
2023/06/05 11:42:21;;;;;;;3.30;1.50;;;;;;;;;;5093777;28;20269;-78
2023/06/05 11:44:46;;;;;;;3.85;1.20;;;;;;;;;;5094396;28;20023;-75
2023/06/05 11:47:24;;;;;;;6.15;1.80;;;;;;;;;;5093641;28;20431;-73
2023/06/05 11:49:50;;;;;;;9.48;1.75;;;;;;;;;;5091662;28;20039;-77
2023/06/05 11:52:18;;;;;;;7.50;1.73;;;;;;;;;;5090620;28;20020;-72
2023/06/05 11:54:53;;;;;;;3.08;1.70;;;;;;;;;;5093958;28;20814;-74
2023/06/05 11:57:18;;;;;;;2.30;1.50;;;;;;;;;;5092746;28;20107;-72
2023/06/05 11:59:44;;;;;;;4.55;1.33;;;;;;;;;;5075440;28;20181;-74
2023/06/05 12:02:10;;;;;;;3.47;1.75;;;;;;;;;;5101887;28;20126;-73
2023/06/05 12:04:38;;;;;;;4.82;1.88;;;;;;;;;;5114955;28;20085;-76
2023/06/05 12:07:04;;;;;;;2.28;1.65;;;;;;;;;;5096033;28;20012;-74
2023/06/05 12:09:29;;;;;;;3.72;1.67;;;;;;;;;;5114330;28;20100;-72
2023/06/05 12:12:05;;;;;;;4.47;1.50;;;;;;;;;;5113622;28;20011;-73
2023/06/05 12:14:31;;;;;;;1.95;1.50;;;;;;;;;;5114372;28;20012;-74
2023/06/05 12:16:57;;;;;;;3.70;1.67;;;;;;;;;;5113960;28;20023;-74
2023/06/05 12:19:23;;;;;;;1.83;1.50;;;;;;;;;;5113993;28;20372;-74
2023/06/05 12:21:50;;;;;;;4.65;1.40;;;;;;;;;;5114349;28;20495;-74
2023/06/05 12:24:22;;;;;;;4.20;1.80;;;;;;;;;;5114025;28;20488;-75
2023/06/05 12:26:58;;;;;;;6.75;2.10;;;;;;;;;;5107646;28;20055;-73
2023/06/05 12:29:28;;;;;;;4.57;1.67;;;;;;;;;;5113535;28;20023;-74
2023/06/05 12:31:54;;;;;;;1.85;1.15;;;;;;;;;;5111567;28;20016;-72
2023/06/05 12:34:37;;;;;;;6.95;1.90;;;;;;;;;;5112023;28;20023;-74
2023/06/05 12:37:02;;;;;;;5.53;1.75;;;;;;;;;;5111248;28;20583;-73
2023/06/05 12:39:28;;;;;;;5.07;1.90;;;;;;;;;;5111546;28;20147;-72
2023/06/05 12:41:54;;;;;;;2.63;1.63;;;;;;;;;;5111867;28;20319;-72
2023/06/05 12:44:19;;;;;;;4.15;1.83;;;;;;;;;;5111409;28;20151;-73
2023/06/05 12:46:44;;;;;;;9.93;1.87;;;;;;;;;;5111514;28;20052;-73
2023/06/05 12:49:11;;;;;;;2.80;1.98;;;;;;;;;;5111894;28;20050;-74
2023/06/05 12:51:36;;;;;;;5.93;1.90;;;;;;;;;;5111631;28;20035;-72
2023/06/05 12:54:02;;;;;;;4.53;1.80;;;;;;;;;;5111953;28;20028;-72
2023/06/05 12:56:28;;;;;;;2.58;1.88;;;;;;;;;;5111778;28;20030;-73
2023/06/05 12:58:54;;;;;;;1.98;1.67;;;;;;;;;;5112462;28;20028;-75
2023/06/05 13:01:20;;;;;;;1.77;1.40;;;;;;;;;;5113214;28;20030;-75
2023/06/05 13:03:45;;;;;;;13.68;2.88;;;;;;;;;;5095398;28;20095;-73
2023/06/05 13:06:10;;;;;;;3.45;1.80;;;;;;;;;;5113391;28;20081;-72
2023/06/05 13:08:36;;;;;;;5.57;1.87;;;;;;;;;;5113207;28;20131;-73
2023/06/05 13:11:01;;;;;;;3.93;1.77;;;;;;;;;;5094928;28;20276;-71
2023/06/05 13:13:26;;;;;;;6.50;1.87;;;;;;;;;;5113163;28;20763;-73
2023/06/05 13:15:51;;;;;;;5.68;1.70;;;;;;;;;;5113210;28;20276;-72
2023/06/05 13:18:17;;;;;;;5.22;2.00;;;;;;;;;;5114233;28;20015;-70
2023/06/05 13:20:42;;;;;;;2.97;1.65;;;;;;;;;;5113981;28;20437;-70
2023/06/05 13:23:10;;;;;;;2.90;1.77;;;;;;;;;;5113889;28;20400;-71
2023/06/05 13:25:35;;;;;;;1.58;1.25;;;;;;;;;;5116795;28;20325;-74
2023/06/05 13:28:00;;;;;;;5.80;1.88;;;;;;;;;;5118148;28;20012;-74
2023/06/05 13:30:26;;;;;;;2.83;1.50;;;;;;;;;;5117378;28;20368;-74
2023/06/05 13:32:53;;;;;;;5.53;1.90;;;;;;;;;;5117523;28;20313;-75
2023/06/05 13:35:19;;;;;;;7.00;1.80;;;;;;;;;;5118416;28;20022;-75
2023/06/05 13:37:44;;;;;;;4.20;1.73;;;;;;;;;;5117556;28;20008;-74
2023/06/05 13:40:10;;;;;;;6.00;2.22;;;;;;;;;;5117341;28;20027;-71
2023/06/05 13:42:35;;;;;;;3.25;1.60;;;;;;;;;;5117507;28;20027;-76
2023/06/05 13:45:01;;;;;;;2.10;1.55;;;;;;;;;;5116935;28;20484;-74
2023/06/05 13:47:26;;;;;;;4.43;1.60;;;;;;;;;;5116687;28;20012;-74
2023/06/05 13:49:53;;;;;;;2.60;1.43;;;;;;;;;;5116836;28;20480;-74
2023/06/05 13:52:18;;;;;;;3.85;1.80;;;;;;;;;;5116701;28;20265;-75
2023/06/05 13:54:44;;;;;;;1.83;1.58;;;;;;;;;;5116723;28;20019;-71
2023/06/05 13:57:10;;;;;;;3.60;2.00;;;;;;;;;;5116616;28;20030;-73
2023/06/05 13:59:35;;;;;;;6.40;1.92;;;;;;;;;;5098243;28;20039;-73
2023/06/05 14:02:00;;;;;;;3.72;1.90;;;;;;;;;;5098231;28;20472;-70
2023/06/05 14:04:26;;;;;;;3.97;2.67;;;;;;;;;;5116721;28;20016;-71
2023/06/05 14:06:54;;;;;;;2.88;1.60;;;;;;;;;;5096780;28;20269;-71
2023/06/05 14:09:20;;;;;;;5.03;1.80;;;;;;;;;;5113557;28;20103;-71
2023/06/05 14:11:45;;;;;;;3.50;1.48;;;;;;;;;;5116755;28;20095;-72
2023/06/05 14:14:11;;;;;;;2.10;1.30;;;;;;;;;;5116302;28;20353;-71
2023/06/05 14:16:36;;;;;;;5.23;2.30;;;;;;;;;;5115336;28;20024;-71
2023/06/05 14:19:02;;;;;;;3.40;1.75;;;;;;;;;;5115670;28;20344;-71
2023/06/05 14:21:27;;;;;;;4.80;1.70;;;;;;;;;;5115767;28;20080;-72
2023/06/05 14:23:52;;;;;;;4.57;1.33;;;;;;;;;;5097624;28;20076;-72
2023/06/05 14:26:17;;;;;;;2.87;1.90;;;;;;;;;;5115652;28;20020;-71
2023/06/05 14:28:43;;;;;;;2.97;1.80;;;;;;;;;;5110312;28;20292;-72
2023/06/05 14:31:08;;;;;;;2.73;2.43;;;;;;;;;;5095068;28;20313;-72
2023/06/05 14:33:33;;;;;;;5.13;2.00;;;;;;;;;;5095582;28;20484;-72
2023/06/05 14:35:59;;;;;;;4.60;1.83;;;;;;;;;;5112337;28;20020;-71
2023/06/05 14:38:24;;;;;;;2.72;2.03;;;;;;;;;;5111153;28;20277;-71
2023/06/05 14:40:51;;;;;;;2.78;1.70;;;;;;;;;;5111386;28;20114;-70
2023/06/05 14:43:16;;;;;;;4.55;1.75;;;;;;;;;;5113193;28;20076;-71
2023/06/05 14:45:42;;;;;;;11.18;1.90;;;;;;;;;;5113194;28;20368;-71